Time;durP1;ratioP1;P1;durP2;ratioP2;P2;SDS_P1;SDS_P2;PMS_P1;PMS_P2;Temp;Humidity;BMP_temperature;BMP_pressure;BME280_temperature;BME280_humidity;BME280_pressure;Samples;Min_cycle;Max_cycle;Signal;HPM_P1;HPM_P2
2023/06/06 00:01:54;;;;;;;2.97;2.70;;;;;;;16.03;100.00;98651.81;5033711;28;20569;-57
2023/06/06 00:04:19;;;;;;;4.63;3.20;;;;;;;15.62;100.00;98625.84;5033741;28;20264;-57
2023/06/06 00:06:45;;;;;;;4.75;2.60;;;;;;;15.56;100.00;98629.00;5013784;28;20202;-57
2023/06/06 00:09:11;;;;;;;3.53;3.23;;;;;;;15.75;100.00;98642.09;5013834;28;20186;-57
2023/06/06 00:11:39;;;;;;;6.43;2.63;;;;;;;16.11;100.00;98659.00;5013827;28;20442;-57
2023/06/06 00:14:07;;;;;;;2.92;2.47;;;;;;;15.89;100.00;98633.09;5013995;28;20186;-57
2023/06/06 00:16:34;;;;;;;3.33;2.50;;;;;;;15.83;100.00;98631.03;5013726;28;20190;-57
2023/06/06 00:19:00;;;;;;;4.20;2.72;;;;;;;15.89;100.00;98638.31;5029003;28;20678;-57
2023/06/06 00:21:26;;;;;;;3.28;2.30;;;;;;;16.13;100.00;98657.91;5033373;28;20194;-57
2023/06/06 00:23:52;;;;;;;4.07;2.55;;;;;;;16.08;100.00;98656.63;5033392;28;20193;-57
2023/06/06 00:26:17;;;;;;;5.18;3.60;;;;;;;15.99;100.00;98650.47;5033188;28;20193;-57
2023/06/06 00:28:43;;;;;;;3.92;2.55;;;;;;;15.85;100.00;98663.03;5033242;28;20190;-57
2023/06/06 00:31:08;;;;;;;2.90;2.60;;;;;;;15.82;100.00;98642.41;5005423;28;20606;-57
2023/06/06 00:33:33;;;;;;;2.67;2.47;;;;;;;15.77;100.00;98644.59;5013380;28;20664;-57
2023/06/06 00:35:59;;;;;;;2.92;2.72;;;;;;;15.84;100.00;98654.38;5013653;28;20190;-56
2023/06/06 00:38:24;;;;;;;3.45;2.47;;;;;;;15.44;100.00;98643.06;5028854;28;20194;-57
2023/06/06 00:40:50;;;;;;;3.33;2.80;;;;;;;15.47;100.00;98662.84;5033063;28;20201;-57
2023/06/06 00:43:15;;;;;;;2.60;2.40;;;;;;;15.29;100.00;98664.38;5032947;28;20182;-57
2023/06/06 00:45:41;;;;;;;3.00;2.70;;;;;;;15.11;100.00;98656.28;5033003;28;20230;-57
2023/06/06 00:48:07;;;;;;;4.05;2.67;;;;;;;15.21;100.00;98645.94;5013016;28;20183;-57
2023/06/06 00:50:35;;;;;;;2.75;2.55;;;;;;;15.16;100.00;98648.09;5013013;28;20246;-57
2023/06/06 00:53:03;;;;;;;2.97;2.78;;;;;;;15.35;100.00;98663.88;4993214;28;20207;-59
2023/06/06 00:55:29;;;;;;;3.58;2.70;;;;;;;15.35;100.00;98633.44;4993398;28;20219;-57
2023/06/06 00:57:56;;;;;;;3.17;2.88;;;;;;;15.24;100.00;98630.88;4993269;28;20215;-56
2023/06/06 01:00:21;;;;;;;2.92;2.30;;;;;;;15.40;100.00;98644.28;4993329;28;20206;-57
2023/06/06 01:02:48;;;;;;;2.75;2.55;;;;;;;15.46;100.00;98661.22;5008096;28;20716;-56
2023/06/06 01:05:16;;;;;;;3.22;2.78;;;;;;;15.08;100.00;98638.31;5012835;28;20186;-57
2023/06/06 01:07:47;;;;;;;5.32;2.85;;;;;;;15.06;100.00;98653.25;5012749;28;20194;-56
2023/06/06 01:10:14;;;;;;;3.33;2.80;;;;;;;15.02;100.00;98645.78;5012658;28;20219;-57
2023/06/06 01:13:06;;;;;;;4.13;2.90;;;;;;;14.96;100.00;98633.28;5012636;28;20245;-57
2023/06/06 01:15:31;;;;;;;4.05;2.80;;;;;;;15.07;100.00;98641.88;5008044;28;20656;-57
2023/06/06 01:17:57;;;;;;;3.13;2.83;;;;;;;14.97;100.00;98635.75;5013115;28;20195;-56
2023/06/06 01:20:23;;;;;;;3.13;2.75;;;;;;;14.97;100.00;98622.72;5032361;28;20182;-57
2023/06/06 01:22:52;;;;;;;2.85;2.63;;;;;;;15.33;100.00;98637.13;5032174;28;20718;-57
2023/06/06 01:25:21;;;;;;;2.83;2.58;;;;;;;15.45;100.00;98628.25;5032277;28;20722;-57
2023/06/06 01:27:47;;;;;;;2.72;2.47;;;;;;;15.46;100.00;98642.94;5032174;28;20189;-57
2023/06/06 01:30:13;;;;;;;2.85;2.35;;;;;;;15.38;100.00;98621.91;5049891;28;20224;-56
2023/06/06 01:32:41;;;;;;;3.75;2.80;;;;;;;15.09;100.00;98633.91;5074353;28;20222;-57
2023/06/06 01:35:25;;;;;;;2.88;2.42;;;;;;;14.97;100.00;98627.09;5074353;28;20248;-57
2023/06/06 01:37:54;;;;;;;3.95;2.55;;;;;;;14.84;100.00;98606.47;5074362;28;20623;-57
2023/06/06 01:40:21;;;;;;;3.47;2.40;;;;;;;14.75;100.00;98606.41;5074245;28;20533;-57
2023/06/06 01:42:48;;;;;;;4.93;3.05;;;;;;;14.98;100.00;98634.00;5073930;28;20176;-57
2023/06/06 01:45:23;;;;;;;5.13;3.10;;;;;;;14.56;100.00;98633.09;5074197;28;20185;-57
2023/06/06 01:47:50;;;;;;;2.65;2.50;;;;;;;14.33;100.00;98610.69;5074185;28;20670;-57
2023/06/06 01:50:16;;;;;;;3.97;3.20;;;;;;;14.25;100.00;98607.06;5073998;28;20207;-57
2023/06/06 01:52:41;;;;;;;3.45;3.03;;;;;;;14.47;100.00;98633.84;5073920;28;20181;-57
2023/06/06 01:55:07;;;;;;;5.07;2.78;;;;;;;14.23;100.00;98633.19;5073691;28;20169;-57
2023/06/06 01:57:33;;;;;;;3.15;2.85;;;;;;;13.78;100.00;98603.00;5073939;28;20191;-57
2023/06/06 01:59:59;;;;;;;4.57;3.10;;;;;;;14.08;100.00;98636.16;5073973;28;20173;-56
2023/06/06 02:02:24;;;;;;;3.40;2.72;;;;;;;14.00;100.00;98628.16;5074162;28;20622;-57
2023/06/06 02:04:50;;;;;;;2.70;2.47;;;;;;;14.09;100.00;98651.66;5073509;28;20252;-57
2023/06/06 02:07:17;;;;;;;4.05;2.72;;;;;;;14.07;100.00;98652.72;5073735;28;20173;-57
2023/06/06 02:09:42;;;;;;;4.18;3.20;;;;;;;14.04;100.00;98656.41;5011446;28;20317;-57
2023/06/06 02:12:09;;;;;;;4.78;3.20;;;;;;;13.96;100.00;98626.72;5011899;28;20183;-57
2023/06/06 02:14:34;;;;;;;3.10;2.80;;;;;;;13.93;100.00;98664.22;5010869;28;20186;-57
2023/06/06 02:17:00;;;;;;;3.63;2.67;;;;;;;13.86;100.00;98662.19;5011612;28;20862;-56
2023/06/06 02:19:26;;;;;;;3.22;2.92;;;;;;;13.69;100.00;98634.91;5011387;28;20372;-57
2023/06/06 02:21:52;;;;;;;3.25;2.83;;;;;;;13.76;100.00;98654.28;5011703;28;20188;-57
2023/06/06 02:24:17;;;;;;;4.05;3.05;;;;;;;13.64;100.00;98647.44;5011402;28;20187;-56
2023/06/06 02:26:44;;;;;;;4.00;3.13;;;;;;;13.59;100.00;98649.56;5011339;28;20187;-56
2023/06/06 02:29:10;;;;;;;3.45;3.15;;;;;;;13.59;100.00;98646.16;5011229;28;20190;-57
2023/06/06 02:31:39;;;;;;;2.95;2.75;;;;;;;13.76;100.00;98654.28;5011166;28;20298;-57
2023/06/06 02:34:05;;;;;;;2.75;2.55;;;;;;;13.80;100.00;98634.06;5011199;28;20187;-57
2023/06/06 02:36:31;;;;;;;4.45;2.80;;;;;;;14.27;100.00;98662.41;5011126;28;20588;-57
2023/06/06 02:38:57;;;;;;;3.83;2.42;;;;;;;14.19;100.00;98633.56;5011209;28;20179;-57
2023/06/06 02:41:23;;;;;;;4.57;2.97;;;;;;;14.31;100.00;98669.03;5059577;28;20224;-57
2023/06/06 02:43:48;;;;;;;4.95;3.17;;;;;;;14.47;100.00;98672.09;5073047;28;20170;-57
2023/06/06 02:46:14;;;;;;;5.20;3.10;;;;;;;14.32;100.00;98660.28;5072664;28;20646;-56
2023/06/06 02:48:40;;;;;;;2.95;2.75;;;;;;;14.37;100.00;98652.94;5072877;28;20252;-57
2023/06/06 02:51:06;;;;;;;3.92;2.80;;;;;;;14.44;100.00;98638.47;5072808;28;20573;-57
2023/06/06 02:53:32;;;;;;;5.28;2.60;;;;;;;14.19;100.00;98646.59;5072826;28;20678;-56
2023/06/06 02:55:58;;;;;;;3.13;2.83;;;;;;;14.34;100.00;98663.59;5072520;28;20260;-57
2023/06/06 02:58:32;;;;;;;4.43;2.75;;;;;;;14.44;100.00;98643.69;5030411;28;20190;-57
2023/06/06 03:00:58;;;;;;;5.45;3.50;;;;;;;14.30;100.00;98647.38;5030494;28;20729;-57
2023/06/06 03:03:24;;;;;;;3.67;2.75;;;;;;;14.27;100.00;98624.22;5030441;28;20178;-57
2023/06/06 03:05:51;;;;;;;3.25;2.95;;;;;;;14.52;100.00;98656.91;5030372;28;20190;-57
2023/06/06 03:08:20;;;;;;;5.72;2.88;;;;;;;14.50;100.00;98631.00;5030239;28;20190;-57
2023/06/06 03:10:48;;;;;;;4.25;2.75;;;;;;;14.63;100.00;98662.09;5030301;28;20269;-56
2023/06/06 03:13:14;;;;;;;4.60;3.28;;;;;;;14.72;100.00;98658.72;5030246;28;20190;-56
2023/06/06 03:15:40;;;;;;;3.88;2.88;;;;;;;14.84;100.00;98663.78;5030185;28;20197;-56
2023/06/06 03:18:09;;;;;;;5.25;3.20;;;;;;;14.78;100.00;98651.25;5030451;28;20192;-56
2023/06/06 03:20:36;;;;;;;3.88;3.10;;;;;;;14.75;100.00;98654.09;5010165;28;20656;-56
2023/06/06 03:23:01;;;;;;;3.22;2.92;;;;;;;14.60;100.00;98650.16;4971134;28;20286;-56
2023/06/06 03:25:27;;;;;;;4.78;3.05;;;;;;;14.85;100.00;98672.41;4971335;28;20223;-56
2023/06/06 03:27:52;;;;;;;6.97;3.70;;;;;;;14.92;100.00;98661.38;4971274;28;20195;-56
2023/06/06 03:30:17;;;;;;;3.70;2.88;;;;;;;14.96;100.00;98657.56;4971069;28;20262;-57
2023/06/06 03:32:43;;;;;;;3.83;2.95;;;;;;;15.06;100.00;98662.84;4971207;28;20681;-57
2023/06/06 03:35:08;;;;;;;3.67;2.90;;;;;;;15.24;100.00;98676.94;4971222;28;20192;-56
2023/06/06 03:37:34;;;;;;;4.35;2.70;;;;;;;15.39;100.00;98680.94;4971196;28;20263;-56
2023/06/06 03:39:59;;;;;;;3.70;2.95;;;;;;;15.54;100.00;98680.47;4971063;28;20636;-57
2023/06/06 03:42:24;;;;;;;7.05;3.10;;;;;;;15.50;100.00;98657.38;4971179;28;20188;-57
2023/06/06 03:44:50;;;;;;;4.90;2.63;;;;;;;15.56;100.00;98682.97;4971417;28;20552;-57
2023/06/06 03:47:15;;;;;;;3.38;3.08;;;;;;;15.51;100.00;98692.94;4971174;28;20224;-57
2023/06/06 03:49:41;;;;;;;3.20;2.90;;;;;;;15.54;100.00;98697.88;4971103;28;20243;-57
2023/06/06 03:52:07;;;;;;;3.78;2.70;;;;;;;15.56;100.00;98693.38;5014662;28;20248;-57
2023/06/06 03:54:36;;;;;;;2.97;2.78;;;;;;;15.58;100.00;98696.69;5024091;28;20268;-57
2023/06/06 03:57:03;;;;;;;2.53;2.33;;;;;;;15.47;100.00;98688.94;5029703;28;20202;-57
2023/06/06 03:59:28;;;;;;;6.32;2.80;;;;;;;15.53;100.00;98683.19;5029806;28;20294;-57
2023/06/06 04:01:53;;;;;;;3.17;2.88;;;;;;;15.67;100.00;98680.25;5030019;28;20182;-57
2023/06/06 04:04:19;;;;;;;3.67;2.95;;;;;;;15.77;100.00;98675.91;5009894;28;20198;-57
2023/06/06 04:06:44;;;;;;;2.90;2.70;;;;;;;15.95;100.00;98679.53;5009895;28;20248;-57
2023/06/06 04:09:13;;;;;;;3.10;2.80;;;;;;;16.12;99.06;98697.19;5009926;28;20245;-57
2023/06/06 04:11:38;;;;;;;2.80;2.40;;;;;;;16.04;99.12;98690.03;5009903;28;20605;-57
2023/06/06 04:14:03;;;;;;;3.92;3.20;;;;;;;16.03;98.91;98683.16;5010076;28;20273;-57
2023/06/06 04:16:29;;;;;;;2.90;2.70;;;;;;;15.94;99.47;98683.13;5009882;28;20190;-57
2023/06/06 04:18:54;;;;;;;5.45;3.13;;;;;;;15.96;100.00;98665.53;5009802;28;20191;-57
2023/06/06 04:21:20;;;;;;;3.05;2.78;;;;;;;16.13;98.06;98683.19;5009659;28;20229;-57
2023/06/06 04:23:46;;;;;;;4.95;2.40;;;;;;;16.20;96.61;98663.44;5009763;28;20321;-57
2023/06/06 04:26:25;;;;;;;4.15;3.25;;;;;;;16.54;96.52;98699.53;5009764;28;20186;-57
2023/06/06 04:28:53;;;;;;;3.05;2.70;;;;;;;16.50;94.64;98676.44;4990098;28;20285;-57
2023/06/06 04:31:21;;;;;;;4.72;3.17;;;;;;;16.56;94.32;98694.19;4998948;28;20212;-57
2023/06/06 04:33:52;;;;;;;4.38;2.95;;;;;;;16.65;94.33;98685.53;5029373;28;20247;-57
2023/06/06 04:36:22;;;;;;;3.47;2.50;;;;;;;16.80;93.23;98705.06;5029379;28;20621;-58
2023/06/06 04:38:49;;;;;;;3.55;3.13;;;;;;;16.87;93.47;98700.94;5032556;28;20186;-56
2023/06/06 04:41:22;;;;;;;3.28;3.05;;;;;;;16.94;92.93;98707.28;5032938;28;20226;-57
2023/06/06 04:43:51;;;;;;;3.33;2.88;;;;;;;17.00;92.72;98702.34;5033314;28;20598;-57
2023/06/06 04:46:23;;;;;;;2.78;2.58;;;;;;;17.29;91.47;98708.38;5032952;28;20178;-57
2023/06/06 04:48:56;;;;;;;2.72;2.53;;;;;;;17.32;90.69;98681.91;5032984;28;20281;-57
2023/06/06 04:51:29;;;;;;;3.60;3.00;;;;;;;17.52;87.42;98694.06;5032954;28;20671;-57
2023/06/06 04:53:55;;;;;;;2.75;2.55;;;;;;;17.58;86.73;98697.88;5032828;28;20201;-56
2023/06/06 04:56:20;;;;;;;3.25;2.88;;;;;;;17.64;86.15;98692.91;5032812;28;20567;-57
2023/06/06 04:58:46;;;;;;;3.35;2.67;;;;;;;17.79;85.74;98714.22;5036304;28;20188;-57
2023/06/06 05:01:12;;;;;;;2.88;2.20;;;;;;;17.93;85.80;98719.00;5032624;28;20620;-59
2023/06/06 05:03:38;;;;;;;3.50;2.25;;;;;;;17.96;85.20;98705.63;5032547;28;20272;-58
2023/06/06 05:06:05;;;;;;;4.88;2.72;;;;;;;18.24;85.08;98730.88;5032631;28;20182;-58
2023/06/06 05:08:31;;;;;;;13.23;2.67;;;;;;;18.42;84.82;98726.53;5032658;28;20272;-58
2023/06/06 05:10:58;;;;;;;2.85;1.85;;;;;;;18.44;84.60;98695.75;5032510;28;20243;-58
2023/06/06 05:13:23;;;;;;;7.22;1.90;;;;;;;18.68;84.32;98715.22;5032044;28;20189;-58
2023/06/06 05:15:49;;;;;;;4.13;2.30;;;;;;;18.83;82.96;98708.47;5049798;28;20193;-58
2023/06/06 05:18:15;;;;;;;6.05;2.47;;;;;;;18.89;82.16;98702.63;5052115;28;20182;-58
2023/06/06 05:20:41;;;;;;;9.45;2.30;;;;;;;19.00;81.96;98707.63;5051856;28;20225;-58
2023/06/06 05:23:07;;;;;;;4.35;2.20;;;;;;;19.29;81.42;98733.69;5052081;28;20192;-58
2023/06/06 05:25:34;;;;;;;4.00;2.30;;;;;;;19.30;80.86;98722.22;5051836;28;20173;-58
2023/06/06 05:27:59;;;;;;;4.22;1.70;;;;;;;19.22;80.67;98706.38;5050506;28;20243;-58
2023/06/06 05:30:25;;;;;;;7.47;2.65;;;;;;;19.17;80.35;98709.44;5050752;28;20645;-58
2023/06/06 05:32:50;;;;;;;2.85;2.20;;;;;;;18.93;80.72;98705.75;5084760;28;20215;-58
2023/06/06 05:35:16;;;;;;;4.70;2.25;;;;;;;19.13;80.46;98729.06;5093492;28;20229;-58
2023/06/06 05:37:42;;;;;;;3.97;2.20;;;;;;;19.04;80.50;98731.78;5094580;28;20172;-58
2023/06/06 05:40:09;;;;;;;5.32;2.38;;;;;;;18.73;80.07;98709.50;5094402;28;20249;-58
2023/06/06 05:42:35;;;;;;;2.65;2.33;;;;;;;18.77;79.81;98721.34;5094515;28;20244;-58
2023/06/06 05:45:00;;;;;;;2.90;2.22;;;;;;;18.91;80.52;98732.16;5094194;28;20203;-57
2023/06/06 05:47:26;;;;;;;5.50;2.13;;;;;;;19.07;80.23;98744.59;5094456;28;20696;-58
2023/06/06 05:49:51;;;;;;;3.45;1.98;;;;;;;19.01;81.81;98740.75;5030643;28;20194;-58
2023/06/06 05:52:17;;;;;;;3.70;2.10;;;;;;;18.96;83.06;98726.47;5031791;28;20341;-58
2023/06/06 05:54:43;;;;;;;2.97;1.80;;;;;;;18.93;83.07;98721.50;4992240;28;20657;-58
2023/06/06 05:57:20;;;;;;;1.58;1.48;;;;;;;18.87;83.14;98738.66;4992321;28;20183;-58
2023/06/06 05:59:45;;;;;;;5.07;1.75;;;;;;;18.94;85.72;98728.41;4992206;28;20214;-57
2023/06/06 06:02:13;;;;;;;3.17;2.00;;;;;;;19.07;85.36;98713.13;4992249;28;20237;-58
2023/06/06 06:04:39;;;;;;;4.43;1.83;;;;;;;19.41;83.90;98738.53;4992170;28;20192;-58
2023/06/06 06:07:05;;;;;;;3.15;1.75;;;;;;;19.52;82.38;98730.41;4992187;28;20206;-55
2023/06/06 06:09:31;;;;;;;3.65;2.03;;;;;;;19.52;76.84;98713.84;4991962;28;20237;-58
2023/06/06 06:11:56;;;;;;;4.07;2.15;;;;;;;19.64;78.77;98733.63;4992001;28;20179;-58
2023/06/06 06:14:21;;;;;;;4.80;1.70;;;;;;;19.36;79.65;98713.72;4991965;28;20188;-58
2023/06/06 06:16:48;;;;;;;5.57;2.05;;;;;;;19.32;79.04;98715.84;4991922;28;20203;-58
2023/06/06 06:19:13;;;;;;;6.85;2.20;;;;;;;19.53;79.35;98721.56;4991923;28;20569;-58
2023/06/06 06:21:39;;;;;;;5.13;1.95;;;;;;;19.40;77.13;98717.69;5040858;28;20235;-58
2023/06/06 06:24:05;;;;;;;2.85;1.98;;;;;;;19.44;74.98;98740.03;5051061;28;20680;-58
2023/06/06 06:26:31;;;;;;;3.38;1.63;;;;;;;19.49;74.25;98740.41;5086643;28;20180;-58
2023/06/06 06:28:58;;;;;;;2.80;1.40;;;;;;;19.28;70.36;98732.00;5093618;28;20176;-58
2023/06/06 06:31:23;;;;;;;13.90;8.95;;;;;;;19.52;70.79;98740.09;5093495;28;20239;-58
2023/06/06 06:33:49;;;;;;;3.13;1.67;;;;;;;19.40;72.22;98723.75;5093225;28;20175;-55
2023/06/06 06:36:14;;;;;;;3.92;1.73;;;;;;;19.55;72.09;98735.38;5093448;28;20251;-55
2023/06/06 06:38:40;;;;;;;6.07;1.90;;;;;;;19.71;72.16;98724.94;5093439;28;20652;-59
2023/06/06 06:41:05;;;;;;;3.63;1.60;;;;;;;19.73;70.25;98711.69;5093311;28;20577;-58
2023/06/06 06:43:30;;;;;;;3.83;1.30;;;;;;;19.81;68.11;98714.38;5093315;28;20167;-58
2023/06/06 06:45:56;;;;;;;2.33;1.30;;;;;;;20.06;69.53;98739.78;5093259;28;20187;-57
2023/06/06 06:48:21;;;;;;;2.42;1.42;;;;;;;19.78;69.88;98731.25;5093276;28;20174;-58
2023/06/06 06:50:47;;;;;;;3.90;1.38;;;;;;;19.81;68.94;98738.00;5093223;28;20180;-58
2023/06/06 06:53:13;;;;;;;3.28;1.35;;;;;;;19.95;66.48;98737.44;5030503;28;20186;-58
2023/06/06 06:55:41;;;;;;;2.92;1.35;;;;;;;19.94;66.53;98730.53;5030563;28;20193;-58
2023/06/06 06:58:06;;;;;;;21.52;3.78;;;;;;;20.01;66.34;98736.81;5030547;28;20616;-58
2023/06/06 07:00:33;;;;;;;2.45;1.50;;;;;;;20.16;67.27;98730.84;5030130;28;20794;-57
2023/06/06 07:02:59;;;;;;;2.58;1.73;;;;;;;20.27;68.03;98727.94;5030377;28;20703;-55
2023/06/06 07:05:25;;;;;;;4.30;1.63;;;;;;;20.39;68.41;98720.59;5030383;28;20178;-55
2023/06/06 07:07:53;;;;;;;4.32;1.63;;;;;;;20.43;66.53;98714.03;4990964;28;20195;-56
2023/06/06 07:10:20;;;;;;;1.80;1.70;;;;;;;20.54;65.50;98713.72;4990967;28;20221;-56
2023/06/06 07:12:47;;;;;;;3.90;1.60;;;;;;;20.48;65.28;98709.13;4990920;28;20187;-56
2023/06/06 07:15:13;;;;;;;4.07;1.60;;;;;;;20.57;62.76;98729.22;4990951;28;20179;-56
2023/06/06 07:17:38;;;;;;;2.38;1.83;;;;;;;20.60;62.58;98723.63;4990808;28;20351;-56
2023/06/06 07:20:05;;;;;;;3.58;1.35;;;;;;;20.56;60.96;98706.50;4990780;28;20203;-57
2023/06/06 07:22:36;;;;;;;3.00;1.10;;;;;;;20.72;60.90;98727.59;4991126;28;20187;-56
2023/06/06 07:25:02;;;;;;;1.55;1.40;;;;;;;20.60;60.35;98703.41;5024134;28;20579;-56
2023/06/06 07:27:29;;;;;;;1.65;1.30;;;;;;;20.59;60.95;98700.94;5030008;28;20194;-56
2023/06/06 07:29:54;;;;;;;1.95;1.38;;;;;;;20.66;61.03;98713.28;5029780;28;20723;-56
2023/06/06 07:32:20;;;;;;;4.90;1.77;;;;;;;20.59;61.09;98716.72;5029994;28;20174;-56
2023/06/06 07:34:46;;;;;;;2.08;1.42;;;;;;;20.25;60.41;98697.53;5030005;28;20754;-56
2023/06/06 07:37:11;;;;;;;2.00;1.67;;;;;;;20.53;59.95;98707.69;5030020;28;20173;-56
2023/06/06 07:39:36;;;;;;;2.75;1.48;;;;;;;20.59;60.78;98722.81;5080475;28;20228;-56
2023/06/06 07:42:02;;;;;;;1.80;1.52;;;;;;;20.69;60.86;98710.31;5092733;28;20262;-56
2023/06/06 07:44:27;;;;;;;1.60;1.50;;;;;;;20.69;60.62;98717.41;5092437;28;20221;-56
2023/06/06 07:46:53;;;;;;;1.60;1.50;;;;;;;20.69;61.16;98722.66;5092394;28;20199;-56
2023/06/06 07:49:18;;;;;;;5.20;1.60;;;;;;;20.82;59.89;98701.97;5092329;28;20590;-56
2023/06/06 07:51:46;;;;;;;1.67;1.42;;;;;;;21.17;58.52;98720.13;5092339;28;20172;-57
2023/06/06 07:54:11;;;;;;;14.70;2.75;;;;;;;21.31;57.75;98722.94;5092287;28;20179;-57
2023/06/06 07:56:37;;;;;;;5.57;1.42;;;;;;;21.21;55.90;98701.22;5091974;28;20529;-56
2023/06/06 07:59:03;;;;;;;4.32;1.10;;;;;;;21.43;54.77;98734.78;5092188;28;20172;-57
2023/06/06 08:01:29;;;;;;;3.55;1.38;;;;;;;21.36;55.32;98707.47;5092132;28;20735;-57
2023/06/06 08:03:55;;;;;;;3.15;1.80;;;;;;;21.31;55.01;98727.38;5092158;28;20542;-56
2023/06/06 08:06:23;;;;;;;5.00;1.40;;;;;;;21.26;55.38;98708.59;5092145;28;20229;-57
2023/06/06 08:08:49;;;;;;;2.83;1.30;;;;;;;21.34;55.14;98713.88;5092146;28;20250;-56
2023/06/06 08:11:15;;;;;;;5.22;1.58;;;;;;;21.52;53.88;98730.34;5092167;28;20548;-57
2023/06/06 08:13:41;;;;;;;2.15;1.33;;;;;;;21.40;53.49;98713.22;5095505;28;20638;-57
2023/06/06 08:16:08;;;;;;;6.03;1.58;;;;;;;21.05;54.84;98718.81;5096123;28;20176;-56
2023/06/06 08:18:33;;;;;;;2.97;1.60;;;;;;;21.14;55.19;98723.09;5096135;28;20633;-56
2023/06/06 08:20:59;;;;;;;2.25;1.55;;;;;;;21.14;54.38;98717.81;5096016;28;20191;-56
2023/06/06 08:23:25;;;;;;;1.27;1.05;;;;;;;21.27;54.99;98697.13;5096033;28;20229;-56
2023/06/06 08:25:55;;;;;;;1.40;1.15;;;;;;;21.65;54.91;98725.38;5095967;28;20180;-57
2023/06/06 08:28:24;;;;;;;2.03;1.20;;;;;;;21.71;52.95;98730.00;5096008;28;20225;-57
2023/06/06 08:30:51;;;;;;;1.95;1.40;;;;;;;21.75;53.83;98723.44;5095750;28;20555;-57
2023/06/06 08:33:17;;;;;;;1.98;1.48;;;;;;;21.80;53.23;98724.56;5053043;28;20243;-56
2023/06/06 08:35:42;;;;;;;6.35;1.23;;;;;;;21.86;53.52;98709.91;5053108;28;20177;-57
2023/06/06 08:38:08;;;;;;;5.00;1.30;;;;;;;22.03;53.53;98701.78;5053384;28;20251;-57
2023/06/06 08:40:33;;;;;;;4.40;1.60;;;;;;;22.08;52.67;98704.72;5013083;28;20214;-57
2023/06/06 08:43:00;;;;;;;1.70;1.60;;;;;;;22.27;52.76;98714.06;5013336;28;20209;-57
2023/06/06 08:45:26;;;;;;;1.40;1.10;;;;;;;22.19;53.28;98685.91;5013276;28;20780;-57
2023/06/06 08:47:54;;;;;;;6.15;1.48;;;;;;;22.36;51.97;98694.56;5013576;28;20191;-57
2023/06/06 08:50:23;;;;;;;3.65;1.30;;;;;;;22.23;50.54;98713.59;5013176;28;20336;-57
2023/06/06 08:52:51;;;;;;;2.97;1.33;;;;;;;22.23;49.60;98699.56;5013161;28;20223;-57
2023/06/06 08:55:18;;;;;;;1.48;1.38;;;;;;;22.08;48.80;98709.19;5013042;28;20225;-57
2023/06/06 08:57:47;;;;;;;2.65;1.20;;;;;;;22.18;49.24;98704.53;5013023;28;20614;-57
2023/06/06 09:00:21;;;;;;;3.30;1.63;;;;;;;22.27;48.25;98708.78;5012860;28;20249;-57
2023/06/06 09:02:47;;;;;;;1.85;1.75;;;;;;;22.43;48.78;98709.56;5013018;28;20186;-57
2023/06/06 09:05:16;;;;;;;2.10;1.08;;;;;;;22.41;48.71;98705.41;5048816;28;20182;-57
2023/06/06 09:07:42;;;;;;;1.20;1.10;;;;;;;22.48;48.96;98698.50;5052539;28;20184;-57
2023/06/06 09:10:08;;;;;;;3.15;1.33;;;;;;;22.49;48.20;98692.25;5052436;28;20189;-57
2023/06/06 09:12:40;;;;;;;4.30;1.40;;;;;;;22.59;45.97;98683.13;5088718;28;20200;-56
2023/06/06 09:15:07;;;;;;;1.35;1.25;;;;;;;22.82;44.77;98693.69;5095079;28;20176;-57
2023/06/06 09:17:36;;;;;;;1.40;1.30;;;;;;;22.81;43.71;98698.16;5095008;28;20551;-56
2023/06/06 09:20:09;;;;;;;1.65;1.55;;;;;;;22.73;44.43;98671.81;5094900;28;20290;-57
2023/06/06 09:22:41;;;;;;;1.60;1.50;;;;;;;22.94;42.95;98692.28;5094963;28;20164;-57
2023/06/06 09:25:26;;;;;;;4.90;1.52;;;;;;;22.73;42.27;98660.44;5095124;28;20728;-57
2023/06/06 09:28:00;;;;;;;2.67;1.55;;;;;;;22.66;42.35;98667.41;5094623;28;20160;-57
2023/06/06 09:30:27;;;;;;;2.42;1.65;;;;;;;22.74;43.15;98660.28;5094338;28;20216;-57
2023/06/06 09:33:01;;;;;;;1.73;1.50;;;;;;;23.05;43.21;98674.22;5094780;28;20168;-58
2023/06/06 09:35:43;;;;;;;4.45;1.65;;;;;;;23.09;43.09;98661.50;5032104;28;20185;-57
2023/06/06 09:38:15;;;;;;;3.50;1.48;;;;;;;23.30;43.33;98673.06;5032117;28;20185;-57
2023/06/06 09:40:48;;;;;;;4.20;1.80;;;;;;;23.45;41.46;98681.00;5031980;28;20205;-56
2023/06/06 09:43:15;;;;;;;6.03;1.48;;;;;;;23.51;39.82;98675.84;5032125;28;20280;-57
2023/06/06 09:45:55;;;;;;;1.63;1.52;;;;;;;23.57;40.78;98671.66;5031442;28;20181;-56
2023/06/06 09:48:27;;;;;;;1.45;1.35;;;;;;;23.63;40.24;98679.69;5031715;28;20178;-58
2023/06/06 09:50:53;;;;;;;1.60;1.50;;;;;;;23.59;39.37;98673.09;5031761;28;20186;-57
2023/06/06 09:53:23;;;;;;;4.35;1.73;;;;;;;23.75;39.28;98668.47;5031441;28;20202;-58
2023/06/06 09:55:49;;;;;;;2.03;1.45;;;;;;;23.94;39.42;98676.91;5031794;28;20182;-57
2023/06/06 09:58:16;;;;;;;2.53;1.50;;;;;;;23.72;37.85;98648.72;5031541;28;20178;-57
2023/06/06 10:00:43;;;;;;;6.50;1.70;;;;;;;23.85;38.49;98658.47;5011403;28;20214;-58
2023/06/06 10:03:11;;;;;;;1.60;1.50;;;;;;;23.61;37.76;98641.22;5011794;28;20656;-57
2023/06/06 10:05:37;;;;;;;2.25;1.45;;;;;;;23.78;37.58;98657.53;5014686;28;20280;-59
2023/06/06 10:08:05;;;;;;;3.03;1.85;;;;;;;23.60;38.06;98652.81;5031425;28;20261;-57
2023/06/06 10:10:32;;;;;;;1.73;1.42;;;;;;;23.62;37.89;98624.38;5031460;28;20186;-57
2023/06/06 10:12:58;;;;;;;4.55;1.90;;;;;;;23.96;38.57;98659.03;5031479;28;20273;-57
2023/06/06 10:15:25;;;;;;;5.68;1.95;;;;;;;24.01;37.90;98652.19;5031265;28;20281;-59
2023/06/06 10:17:51;;;;;;;1.92;1.38;;;;;;;24.15;37.10;98652.19;5031305;28;20185;-57
2023/06/06 10:20:16;;;;;;;1.75;1.65;;;;;;;24.27;37.25;98631.38;5031115;28;20301;-56
2023/06/06 10:22:42;;;;;;;2.47;1.60;;;;;;;24.53;36.55;98632.50;5031264;28;20177;-57
2023/06/06 10:25:13;;;;;;;1.75;1.63;;;;;;;24.62;35.94;98643.81;5031076;28;20178;-57
2023/06/06 10:27:41;;;;;;;3.45;1.58;;;;;;;24.82;34.31;98643.00;5031119;28;20178;-57
2023/06/06 10:30:15;;;;;;;2.58;1.63;;;;;;;24.83;34.20;98615.53;5030852;28;20209;-57
2023/06/06 10:32:50;;;;;;;1.95;1.50;;;;;;;25.13;32.96;98640.03;5069758;28;20222;-58
2023/06/06 10:35:19;;;;;;;4.10;1.30;;;;;;;25.23;32.96;98636.03;5072563;28;20169;-57
2023/06/06 10:38:02;;;;;;;4.45;1.73;;;;;;;25.37;31.67;98631.69;5030693;28;20255;-58
2023/06/06 10:40:27;;;;;;;3.03;1.77;;;;;;;25.32;30.93;98616.34;5030864;28;20197;-57
2023/06/06 10:42:54;;;;;;;1.70;1.50;;;;;;;25.53;31.39;98632.22;4991308;28;20199;-56
2023/06/06 10:45:49;;;;;;;3.25;1.60;;;;;;;25.68;30.90;98629.47;4991372;28;20195;-57
2023/06/06 10:48:15;;;;;;;3.63;1.80;;;;;;;25.77;30.83;98612.41;4971579;28;20196;-57
2023/06/06 10:50:53;;;;;;;2.13;1.92;;;;;;;25.83;30.44;98632.81;4971891;28;20215;-57
2023/06/06 10:53:19;;;;;;;1.80;1.70;;;;;;;25.72;29.75;98625.41;4965480;28;20236;-57
2023/06/06 10:55:45;;;;;;;1.40;1.30;;;;;;;25.88;30.41;98620.59;4971599;28;20705;-57
2023/06/06 10:58:13;;;;;;;2.08;1.67;;;;;;;26.07;31.28;98611.94;4971487;28;20199;-57
2023/06/06 11:00:47;;;;;;;1.60;1.50;;;;;;;26.09;30.25;98591.38;4970972;28;20218;-57
2023/06/06 11:03:15;;;;;;;2.67;1.77;;;;;;;26.38;30.39;98591.03;4963890;28;20203;-57
2023/06/06 11:06:02;;;;;;;2.58;1.55;;;;;;;26.55;31.28;98604.78;4971409;28;20191;-57
2023/06/06 11:08:37;;;;;;;3.38;1.90;;;;;;;26.89;31.16;98604.66;4973904;28;20198;-57
2023/06/06 11:11:15;;;;;;;2.58;1.73;;;;;;;27.02;31.14;98597.50;4991035;28;20546;-57
2023/06/06 11:14:00;;;;;;;5.35;2.05;;;;;;;27.05;30.67;98581.13;4990608;28;20191;-57
2023/06/06 11:16:37;;;;;;;2.95;2.10;;;;;;;27.16;28.45;98601.81;4990660;28;20175;-57
2023/06/06 11:19:28;;;;;;;2.20;1.60;;;;;;;27.20;27.92;98581.78;5007573;28;20217;-57
2023/06/06 11:22:00;;;;;;;4.85;1.85;;;;;;;27.06;28.23;98574.81;5070060;28;20568;-57
2023/06/06 11:24:32;;;;;;;4.45;1.60;;;;;;;27.25;28.29;98584.66;5072399;28;20214;-57
2023/06/06 11:26:58;;;;;;;1.83;1.73;;;;;;;27.14;28.50;98585.25;5072357;28;20187;-57
2023/06/06 11:29:26;;;;;;;3.20;1.77;;;;;;;27.04;29.54;98579.50;5071898;28;20638;-57
2023/06/06 11:31:51;;;;;;;1.67;1.52;;;;;;;27.16;30.17;98577.06;5072363;28;20165;-57